Time;durP1;ratioP1;P1;durP2;ratioP2;P2;SDS_P1;SDS_P2;PMS_P1;PMS_P2;Temp;Humidity;BMP_temperature;BMP_pressure;BME280_temperature;BME280_humidity;BME280_pressure;Samples;Min_cycle;Max_cycle;Signal;HPM_P1;HPM_P2
2023/04/30 00:02:22;;;;;;;15.45;8.83;;;;;;;9.17;100.00;100824.15;4941696;56;1141061;-78
2023/04/30 00:07:28;;;;;;;13.57;7.83;;;;;;;9.07;100.00;100825.72;4994271;57;1140836;-80
2023/04/30 00:12:33;;;;;;;13.53;7.53;;;;;;;8.91;100.00;100826.83;5062418;56;1141106;-76
2023/04/30 00:17:39;;;;;;;12.27;7.60;;;;;;;8.80;100.00;100834.13;5062896;55;1140913;-76
2023/04/30 00:22:44;;;;;;;15.50;8.97;;;;;;;8.64;100.00;100842.19;4999426;57;1140926;-80
2023/04/30 00:27:50;;;;;;;17.53;8.50;;;;;;;8.54;100.00;100846.84;5024757;57;1140925;-77
2023/04/30 00:32:56;;;;;;;13.97;7.90;;;;;;;8.35;100.00;100850.64;5033142;57;1143430;-78
2023/04/30 00:38:02;;;;;;;18.97;10.10;;;;;;;8.25;100.00;100848.16;5039751;57;1140888;-79
2023/04/30 00:43:07;;;;;;;16.77;9.07;;;;;;;8.15;100.00;100856.73;5104076;56;1142978;-78
2023/04/30 00:48:13;;;;;;;19.33;9.70;;;;;;;8.10;100.00;100863.59;5117237;56;1140747;-76
2023/04/30 00:53:20;;;;;;;15.20;10.23;;;;;;;8.10;100.00;100868.40;5032953;57;1138762;-78
2023/04/30 00:58:26;;;;;;;20.50;10.93;;;;;;;8.21;100.00;100871.70;5137052;56;1142849;-78
2023/04/30 01:03:32;;;;;;;18.83;9.53;;;;;;;8.33;100.00;100868.33;5021190;57;1143103;-79
2023/04/30 01:08:37;;;;;;;20.83;9.63;;;;;;;8.29;100.00;100876.02;5116854;56;1140953;-74
2023/04/30 01:13:54;;;;;;;15.23;9.67;;;;;;;8.17;100.00;100883.38;5137292;56;1140874;-78
2023/04/30 01:19:06;;;;;;;14.83;8.58;;;;;;;8.06;100.00;100884.04;5032643;57;1140838;-76
2023/04/30 01:24:34;;;;;;;11.73;8.60;;;;;;;7.91;100.00;100889.39;5032323;56;1140890;-78
2023/04/30 01:29:42;;;;;;;14.40;8.33;;;;;;;7.82;100.00;100892.09;4990727;57;1140870;-79
2023/04/30 01:34:48;;;;;;;14.53;9.30;;;;;;;7.86;100.00;100901.98;4997151;57;1261240;-76
2023/04/30 01:40:16;;;;;;;14.50;8.53;;;;;;;7.79;100.00;100898.89;4979537;58;1141077;-78
2023/04/30 01:45:50;;;;;;;13.93;9.37;;;;;;;7.75;100.00;100907.43;4979813;57;1138775;-76
2023/04/30 01:51:00;;;;;;;14.68;8.73;;;;;;;7.65;100.00;100918.58;4962962;57;1140837;-75
2023/04/30 01:56:12;;;;;;;13.08;8.83;;;;;;;7.60;100.00;100920.19;4979002;57;1140932;-78
2023/04/30 02:01:32;;;;;;;11.67;8.83;;;;;;;7.56;100.00;100925.70;4940903;56;1141029;-80
2023/04/30 02:06:37;;;;;;;15.80;9.60;;;;;;;7.55;100.00;100930.12;5062495;56;1141024;-77
2023/04/30 02:11:43;;;;;;;12.67;9.53;;;;;;;7.50;100.00;100936.58;5062217;56;1140717;-79
2023/04/30 02:16:50;;;;;;;22.02;10.45;;;;;;;7.38;100.00;100940.31;5094650;56;1138939;-78
2023/04/30 02:21:55;;;;;;;11.38;8.18;;;;;;;7.33;100.00;100959.95;4977817;57;1143040;-80
2023/04/30 02:27:01;;;;;;;14.63;8.93;;;;;;;7.39;100.00;100956.48;4979563;57;1141025;-78
2023/04/30 02:32:07;;;;;;;20.00;8.98;;;;;;;7.50;100.00;100961.59;5061923;56;1140961;-78
2023/04/30 02:37:13;;;;;;;21.20;8.90;;;;;;;7.54;100.00;100965.75;5082209;56;1140839;-75
2023/04/30 02:42:19;;;;;;;12.60;9.30;;;;;;;7.45;100.00;100973.72;5061833;57;1138952;-77
2023/04/30 02:47:24;;;;;;;16.27;8.67;;;;;;;7.38;100.00;100974.52;5062479;56;1138743;-78
2023/04/30 02:52:33;;;;;;;15.80;8.73;;;;;;;7.33;100.00;100983.13;5082628;56;1138919;-77
2023/04/30 02:57:39;;;;;;;16.63;9.10;;;;;;;7.24;100.00;100984.12;5063202;55;1138751;-80
2023/04/30 03:02:44;;;;;;;14.60;8.30;;;;;;;7.22;100.00;100987.31;5016802;55;1140807;-77
2023/04/30 03:07:50;;;;;;;16.97;8.63;;;;;;;7.25;100.00;100991.09;5008074;56;1141138;-77
2023/04/30 03:12:56;;;;;;;15.83;9.00;;;;;;;7.25;100.00;100998.52;5061449;55;1140922;-77
2023/04/30 03:18:02;;;;;;;17.03;9.50;;;;;;;7.20;100.00;100995.28;5062850;57;1140745;-77
2023/04/30 03:23:08;;;;;;;17.37;9.05;;;;;;;7.06;100.00;100997.38;5063151;56;1138829;-78
2023/04/30 03:28:14;;;;;;;13.40;8.73;;;;;;;6.93;100.00;101006.02;5082815;56;1138956;-76
2023/04/30 03:33:20;;;;;;;11.30;7.77;;;;;;;6.86;100.00;101015.20;5088238;56;1138910;-78
2023/04/30 03:38:25;;;;;;;12.33;8.43;;;;;;;6.80;100.00;101012.89;5082601;56;1139005;-81
2023/04/30 03:43:31;;;;;;;8.43;6.80;;;;;;;6.76;100.00;101024.48;5099999;56;1140892;-78
2023/04/30 03:48:37;;;;;;;12.67;7.30;;;;;;;6.81;100.00;101029.89;5097610;56;1138826;-79
2023/04/30 03:53:42;;;;;;;10.83;7.80;;;;;;;6.78;100.00;101030.05;5097200;56;1140744;-77
2023/04/30 03:58:48;;;;;;;18.57;8.37;;;;;;;6.68;100.00;101044.16;5114096;56;1141044;-78
2023/04/30 04:03:54;;;;;;;13.63;8.00;;;;;;;6.53;100.00;101040.18;5080030;56;1138886;-76
2023/04/30 04:08:59;;;;;;;12.87;8.43;;;;;;;6.33;100.00;101056.51;5094598;56;1138983;-76
2023/04/30 04:14:05;;;;;;;19.87;8.83;;;;;;;6.21;100.00;101059.77;4995598;57;1139002;-78
2023/04/30 04:19:12;;;;;;;13.45;7.45;;;;;;;6.08;100.00;101060.47;5115565;56;1138724;-78
2023/04/30 04:24:17;;;;;;;17.07;8.23;;;;;;;6.06;100.00;101069.73;5073291;56;1141009;-77
2023/04/30 04:29:23;;;;;;;10.33;6.83;;;;;;;6.06;100.00;101067.11;5072309;56;1140835;-77
2023/04/30 04:34:29;;;;;;;11.87;6.83;;;;;;;6.09;100.00;101084.49;5173742;55;1140746;-76
2023/04/30 04:39:36;;;;;;;12.73;6.60;;;;;;;6.12;100.00;101093.50;5132832;55;1140844;-75
2023/04/30 04:44:41;;;;;;;16.77;6.07;;;;;;;6.05;100.00;101089.04;5156981;55;1138790;-78
2023/04/30 04:49:47;;;;;;;12.37;7.33;;;;;;;6.07;100.00;101102.95;5127489;55;1140812;-75
2023/04/30 04:54:53;;;;;;;12.77;7.50;;;;;;;6.16;100.00;101108.19;5097015;56;1140739;-78
2023/04/30 04:59:59;;;;;;;15.50;7.00;;;;;;;6.16;100.00;101112.13;5097792;55;1140879;-77
2023/04/30 05:05:05;;;;;;;15.93;6.42;;;;;;;6.17;100.00;101113.37;5182675;55;1138789;-76
2023/04/30 05:10:11;;;;;;;12.43;5.80;;;;;;;6.22;100.00;101131.53;5116995;56;1140790;-73
2023/04/30 05:15:17;;;;;;;19.57;7.13;;;;;;;6.31;100.00;101132.37;5096847;56;1140893;-76
2023/04/30 05:20:22;;;;;;;13.60;6.00;;;;;;;6.32;100.00;101141.50;5097035;56;1138766;-71
2023/04/30 05:25:28;;;;;;;8.87;4.80;;;;;;;6.42;100.00;101139.24;5117153;56;1140873;-70
2023/04/30 05:30:34;;;;;;;9.47;5.10;;;;;;;6.60;100.00;101144.89;5104285;55;1136601;-73
2023/04/30 05:35:39;;;;;;;13.67;5.83;;;;;;;6.88;100.00;101154.82;5170554;55;1138960;-72
2023/04/30 05:40:45;;;;;;;16.37;5.55;;;;;;;7.05;100.00;101160.52;5191514;55;1140991;-72
2023/04/30 05:45:51;;;;;;;16.77;5.20;;;;;;;7.22;100.00;101172.78;5020165;57;1141016;-73
2023/04/30 05:50:56;;;;;;;18.07;4.63;;;;;;;7.43;100.00;101169.47;5104379;55;1140968;-75
2023/04/30 05:56:04;;;;;;;13.80;4.62;;;;;;;7.59;100.00;101176.92;5135253;55;1140969;-73
2023/04/30 06:01:10;;;;;;;9.10;3.42;;;;;;;7.75;100.00;101176.00;5136252;56;1140826;-71
2023/04/30 06:06:15;;;;;;;31.77;13.10;;;;;;;7.86;100.00;101183.29;5008124;56;1138735;-75
2023/04/30 06:11:21;;;;;;;10.60;4.25;;;;;;;7.98;100.00;101188.33;5088108;56;1142923;-75
2023/04/30 06:16:27;;;;;;;10.10;3.87;;;;;;;8.31;100.00;101194.80;5065247;56;1140868;-72
2023/04/30 06:21:32;;;;;;;10.63;4.03;;;;;;;8.63;100.00;101196.92;5057962;56;1140948;-74
2023/04/30 06:26:38;;;;;;;9.60;4.97;;;;;;;8.78;100.00;101202.61;5033837;56;1140807;-77
2023/04/30 06:31:43;;;;;;;9.77;3.73;;;;;;;8.91;100.00;101197.45;5070778;56;1138636;-71
2023/04/30 06:36:49;;;;;;;10.87;3.10;;;;;;;8.94;100.00;101203.39;5057687;56;1138789;-69
2023/04/30 06:41:55;;;;;;;9.77;4.10;;;;;;;8.94;100.00;101203.39;5017834;56;1140921;-69
2023/04/30 06:47:01;;;;;;;8.98;2.85;;;;;;;9.08;100.00;101202.09;5043877;55;1136862;-68
2023/04/30 06:52:07;;;;;;;12.30;2.97;;;;;;;9.28;100.00;101202.68;5021746;57;1138897;-70
2023/04/30 06:57:12;;;;;;;7.27;2.83;;;;;;;9.29;100.00;101207.87;5011026;57;1140759;-71
2023/04/30 07:02:18;;;;;;;4.63;1.90;;;;;;;9.42;100.00;101215.41;5050817;56;1138854;-71
2023/04/30 07:07:24;;;;;;;11.13;2.33;;;;;;;9.41;100.00;101219.45;5040566;56;1139076;-72
2023/04/30 07:12:30;;;;;;;10.80;2.73;;;;;;;9.38;100.00;101219.17;5032511;56;1138905;-69
2023/04/30 07:17:36;;;;;;;11.57;3.50;;;;;;;9.47;100.00;101218.59;5153535;55;1138741;-68
2023/04/30 07:22:44;;;;;;;7.03;2.37;;;;;;;9.57;100.00;101218.04;5120709;56;1138935;-70
2023/04/30 07:27:52;;;;;;;3.23;1.90;;;;;;;9.71;100.00;101221.52;5033165;56;1138893;-71
2023/04/30 07:32:57;;;;;;;10.90;3.23;;;;;;;9.84;100.00;101222.91;5137886;56;1142564;-72
2023/04/30 07:38:04;;;;;;;6.53;1.82;;;;;;;10.08;100.00;101233.73;5115231;56;1141027;-72
2023/04/30 07:43:10;;;;;;;12.47;2.43;;;;;;;10.02;100.00;101236.75;4960439;57;1140823;-71
2023/04/30 07:48:16;;;;;;;10.40;3.00;;;;;;;10.06;100.00;101243.07;4933141;58;1142875;-75
2023/04/30 07:53:26;;;;;;;11.47;3.00;;;;;;;10.06;100.00;101243.07;5051801;57;1142911;-77
2023/04/30 07:58:32;;;;;;;9.08;2.62;;;;;;;10.42;100.00;101241.66;5035710;56;1142901;-77
2023/04/30 08:03:37;;;;;;;10.27;2.87;;;;;;;10.58;100.00;101240.55;5040775;56;1140908;-78
2023/04/30 08:08:43;;;;;;;3.80;2.33;;;;;;;10.61;100.00;101249.23;5082419;56;1142882;-78
2023/04/30 08:13:49;;;;;;;10.97;4.10;;;;;;;10.50;96.80;101254.77;5062591;56;1141211;-78
2023/04/30 08:18:55;;;;;;;8.53;2.30;;;;;;;10.51;100.00;101239.27;4999395;57;1140780;-77
2023/04/30 08:24:01;;;;;;;7.55;2.58;;;;;;;10.53;100.00;101240.49;5051979;56;1140914;-77
2023/04/30 08:29:12;;;;;;;9.90;2.57;;;;;;;10.65;97.90;101250.26;4944778;57;1140861;-78
2023/04/30 08:34:14;;;;;;;4.45;2.05;;;;;;;10.62;98.09;101251.78;4998535;57;1139036;-77
2023/04/30 08:39:19;;;;;;;15.93;2.70;;;;;;;10.67;99.45;101254.13;5080617;56;1138767;-78
2023/04/30 08:44:27;;;;;;;3.40;2.30;;;;;;;10.73;98.18;101270.42;5009401;56;1140889;-79
2023/04/30 08:49:32;;;;;;;7.87;2.10;;;;;;;10.89;100.00;101263.64;5060948;56;1138780;-79
2023/04/30 08:54:38;;;;;;;6.27;1.90;;;;;;;10.95;96.60;101279.12;5081707;57;1140943;-78
2023/04/30 08:59:46;;;;;;;5.27;2.03;;;;;;;10.98;92.81;101269.66;4936037;57;1138686;-79
2023/04/30 09:04:52;;;;;;;5.70;1.67;;;;;;;11.14;95.37;101274.77;4923836;58;1138836;-80
2023/04/30 09:09:59;;;;;;;7.50;2.40;;;;;;;11.45;86.14;101258.47;4999628;56;1138700;-79
2023/04/30 09:15:07;;;;;;;6.65;1.80;;;;;;;11.45;86.14;101258.47;4974920;57;1138795;-78
2023/04/30 09:20:14;;;;;;;5.10;1.98;;;;;;;11.53;68.62;101275.14;4979846;56;1138841;-80
2023/04/30 09:25:21;;;;;;;5.97;2.00;;;;;;;11.39;70.19;101283.19;4983606;57;1138789;-80
2023/04/30 09:30:32;;;;;;;7.80;2.27;;;;;;;11.34;72.81;101287.47;4950435;57;1138667;-80
2023/04/30 09:35:43;;;;;;;6.13;1.60;;;;;;;11.45;67.83;101273.52;5074694;56;1138823;-79
2023/04/30 09:40:48;;;;;;;4.73;1.97;;;;;;;11.49;65.58;101284.24;5082061;56;1138641;-80
2023/04/30 09:45:54;;;;;;;2.33;1.30;;;;;;;11.62;67.41;101284.61;5120688;56;1138685;-79
2023/04/30 09:51:03;;;;;;;8.40;1.70;;;;;;;11.63;63.88;101291.60;5157071;56;1138789;-80
2023/04/30 09:56:09;;;;;;;1.52;1.20;;;;;;;11.72;69.79;101276.03;5194592;56;1139192;-79
2023/04/30 10:01:15;;;;;;;4.10;1.70;;;;;;;11.92;64.19;101271.03;5102177;57;1138931;-80
2023/04/30 10:06:22;;;;;;;5.03;1.55;;;;;;;12.02;62.16;101276.54;5132815;56;1138936;-80
2023/04/30 10:11:31;;;;;;;1.83;1.33;;;;;;;12.16;62.47;101266.27;5140964;56;1139432;-79
2023/04/30 10:17:04;;;;;;;5.95;2.10;;;;;;;12.30;65.37;101269.61;5119821;57;1138916;-80
2023/04/30 10:22:11;;;;;;;4.87;2.07;;;;;;;12.62;64.43;101263.74;5068284;57;1138705;-80
2023/04/30 10:27:18;;;;;;;3.25;2.33;;;;;;;12.67;63.20;101254.49;5211983;56;1138974;-79
2023/04/30 10:32:24;;;;;;;7.83;1.77;;;;;;;12.63;64.11;101264.96;5169937;56;1138793;-79
2023/04/30 10:37:51;;;;;;;5.33;1.80;;;;;;;12.63;59.92;101252.17;5087983;56;1138819;-80
2023/04/30 10:42:56;;;;;;;3.50;1.50;;;;;;;12.73;61.65;101251.84;5068061;57;1138862;-79
2023/04/30 10:48:03;;;;;;;9.27;1.90;;;;;;;12.99;61.18;101250.71;5140965;56;1138811;-80
2023/04/30 10:53:16;;;;;;;2.97;1.40;;;;;;;13.00;60.46;101250.23;5105522;56;1138627;-78
2023/04/30 10:58:27;;;;;;;;;;;;;;;13.12;60.05;101249.80;5024422;56;1160785;-78
2023/04/30 11:03:36;;;;;;;4.87;1.23;;;;;;;13.20;59.60;101243.44;5058295;57;976011;-78
2023/04/30 11:08:46;;;;;;;2.97;1.60;;;;;;;13.23;51.13;101248.03;5067157;57;1136684;-78
2023/04/30 11:14:01;;;;;;;4.08;2.00;;;;;;;13.21;55.74;101250.44;5079651;57;1138764;-79
2023/04/30 11:19:13;;;;;;;6.10;1.72;;;;;;;13.33;52.44;101242.36;5078535;56;1138835;-78
2023/04/30 11:24:20;;;;;;;5.70;2.12;;;;;;;13.44;53.35;101239.38;5044380;57;1138962;-78
2023/04/30 11:29:27;;;;;;;6.00;1.63;;;;;;;13.52;57.70;101239.12;4973330;59;1138766;-78
2023/04/30 11:34:35;;;;;;;7.93;2.40;;;;;;;13.78;54.50;101239.72;4942836;58;1138952;-78
2023/04/30 11:39:42;;;;;;;5.47;2.03;;;;;;;14.07;55.22;101243.55;4981792;58;1139046;-78
2023/04/30 11:44:48;;;;;;;5.40;1.70;;;;;;;13.96;51.81;101236.92;4971025;57;1138789;-78
2023/04/30 11:49:56;;;;;;;6.50;1.30;;;;;;;13.93;51.91;101233.66;5246662;55;1138920;-78
2023/04/30 11:55:15;;;;;;;3.80;1.50;;;;;;;14.07;52.57;101238.22;5171938;55;1138838;-78
2023/04/30 12:00:24;;;;;;;3.60;1.57;;;;;;;14.15;51.31;101234.11;5255389;55;1138674;-78
2023/04/30 12:05:30;;;;;;;5.20;1.47;;;;;;;14.23;51.28;101229.84;5277902;55;1138605;-78
2023/04/30 12:10:36;;;;;;;4.33;1.60;;;;;;;14.43;50.66;101241.08;5073596;56;1139408;-78
2023/04/30 12:15:42;;;;;;;5.97;1.80;;;;;;;14.41;51.84;101240.84;5045503;57;1138796;-78
2023/04/30 12:20:47;;;;;;;5.83;2.33;;;;;;;14.40;50.18;101244.47;5123471;56;1138827;-78
2023/04/30 12:25:53;;;;;;;9.33;1.70;;;;;;;14.54;52.21;101240.66;5153866;56;1138872;-78
2023/04/30 12:31:01;;;;;;;7.63;1.67;;;;;;;14.65;51.78;101237.50;5016968;57;1138830;-78
2023/04/30 12:36:12;;;;;;;5.80;1.77;;;;;;;14.60;48.92;101235.69;5060749;56;1138854;-78
2023/04/30 12:41:19;;;;;;;3.12;1.67;;;;;;;14.64;48.47;101236.29;5106037;56;1138848;-78
2023/04/30 12:46:28;;;;;;;5.23;1.40;;;;;;;14.72;50.04;101229.34;5155185;56;1138741;-78
2023/04/30 12:51:42;;;;;;;5.83;1.72;;;;;;;14.94;47.35;101224.88;5080475;56;1138888;-79
2023/04/30 12:57:08;;;;;;;6.30;1.80;;;;;;;15.04;49.94;101215.97;4942357;57;1138958;-78
2023/04/30 13:02:14;;;;;;;5.13;2.07;;;;;;;15.11;46.17;101223.81;4996474;57;1138881;-78
2023/04/30 13:07:20;;;;;;;5.60;1.80;;;;;;;15.00;48.34;101223.86;5073117;57;1139191;-78
2023/04/30 13:12:26;;;;;;;10.37;2.40;;;;;;;15.21;52.33;101212.35;5019893;57;1138946;-78
2023/04/30 13:17:32;;;;;;;7.37;2.37;;;;;;;15.51;51.20;101219.02;5073522;58;1141007;-78
2023/04/30 13:22:38;;;;;;;2.70;1.50;;;;;;;15.72;50.17;101215.85;5109843;57;1139145;-78
2023/04/30 13:27:43;;;;;;;7.00;2.00;;;;;;;15.61;47.40;101220.42;4972541;57;1138874;-78
2023/04/30 13:32:49;;;;;;;6.60;1.63;;;;;;;15.61;51.36;101204.42;5012984;57;1138912;-78
2023/04/30 13:37:56;;;;;;;3.93;1.90;;;;;;;15.87;47.36;101212.32;5001643;57;1138781;-78
2023/04/30 13:43:02;;;;;;;8.60;1.70;;;;;;;15.80;45.91;101208.00;4975953;57;1138912;-77
2023/04/30 13:48:08;;;;;;;5.23;2.20;;;;;;;15.57;45.30;101201.20;4979766;57;1139084;-78
2023/04/30 13:53:14;;;;;;;6.97;2.00;;;;;;;15.62;47.45;101197.62;4979001;56;1141518;-78
2023/04/30 13:58:20;;;;;;;8.28;2.37;;;;;;;15.56;46.30;101207.52;5037404;57;1138760;-78
2023/04/30 14:03:25;;;;;;;3.57;2.20;;;;;;;15.65;47.57;101206.69;4945824;57;1139004;-78
2023/04/30 14:08:32;;;;;;;3.43;1.50;;;;;;;15.78;47.37;101196.63;4987586;57;1138993;-79
2023/04/30 14:13:38;;;;;;;6.00;2.30;;;;;;;15.79;47.10;101182.80;4988118;57;1139502;-78
2023/04/30 14:18:43;;;;;;;5.07;1.87;;;;;;;15.88;47.72;101192.67;5054439;57;1138777;-79
2023/04/30 14:23:51;;;;;;;4.53;1.70;;;;;;;16.00;46.30;101196.06;5137412;56;1138834;-78
2023/04/30 14:28:58;;;;;;;7.00;2.17;;;;;;;16.09;44.07;101198.73;5116670;56;1138988;-78
2023/04/30 14:34:04;;;;;;;3.83;1.87;;;;;;;16.10;46.00;101192.41;5033324;58;1139047;-79
2023/04/30 14:39:10;;;;;;;3.23;1.70;;;;;;;16.08;44.15;101190.38;5022355;57;1138746;-78
2023/04/30 14:44:15;;;;;;;4.30;2.37;;;;;;;16.11;44.81;101183.92;5031322;58;1138756;-78
2023/04/30 14:49:21;;;;;;;6.37;2.40;;;;;;;16.22;44.77;101179.78;5159053;56;1138844;-78
2023/04/30 14:54:27;;;;;;;6.27;2.23;;;;;;;16.25;44.67;101186.18;5162492;57;1138875;-78
2023/04/30 14:59:33;;;;;;;5.13;1.77;;;;;;;16.16;46.71;101180.36;5111637;56;1138774;-78
2023/04/30 15:04:39;;;;;;;7.63;3.17;;;;;;;16.18;43.87;101181.91;5049142;57;1139151;-78
2023/04/30 15:09:45;;;;;;;6.23;1.70;;;;;;;16.21;45.97;101175.42;5019409;57;1138802;-79
2023/04/30 15:14:51;;;;;;;6.33;2.13;;;;;;;16.24;43.23;101187.65;4980794;57;1139301;-78
2023/04/30 15:19:59;;;;;;;5.87;1.98;;;;;;;16.11;42.18;101186.59;4951984;58;1138910;-79
2023/04/30 15:25:04;;;;;;;7.93;3.20;;;;;;;16.16;42.37;101182.53;4980471;57;1138880;-78
2023/04/30 15:30:11;;;;;;;7.70;2.40;;;;;;;16.24;44.61;101175.15;4980205;58;1138843;-78
2023/04/30 15:35:16;;;;;;;6.97;2.90;;;;;;;16.42;43.25;101172.63;5024360;56;1138933;-79
2023/04/30 15:40:23;;;;;;;1.87;1.50;;;;;;;16.41;41.75;101171.78;5082608;55;1138790;-79
2023/04/30 15:45:29;;;;;;;7.97;2.10;;;;;;;16.31;41.97;101177.62;4980214;57;1139001;-79
2023/04/30 15:50:34;;;;;;;3.77;1.93;;;;;;;16.23;44.70;101174.80;4980025;57;1138918;-79
2023/04/30 15:55:40;;;;;;;3.47;1.60;;;;;;;16.27;44.55;101179.37;4999730;57;1138747;-78
2023/04/30 16:00:46;;;;;;;7.90;2.50;;;;;;;16.34;44.58;101172.51;4966763;57;1138908;-79
2023/04/30 16:05:51;;;;;;;5.70;2.37;;;;;;;16.51;44.84;101168.61;5011335;57;1138944;-79
2023/04/30 16:10:57;;;;;;;5.28;2.33;;;;;;;16.57;44.70;101171.22;5072428;55;1138889;-78
2023/04/30 16:16:07;;;;;;;7.62;2.87;;;;;;;16.49;43.71;101174.61;4963984;57;1138980;-78
2023/04/30 16:21:12;;;;;;;14.87;4.33;;;;;;;16.56;45.07;101174.88;4979925;57;1138996;-78
2023/04/30 16:26:18;;;;;;;17.95;9.93;;;;;;;16.59;45.34;101167.08;4993989;56;1140874;-78
2023/04/30 16:31:23;;;;;;;8.90;3.70;;;;;;;16.63;45.13;101161.84;4987631;57;1140932;-78
2023/04/30 16:36:29;;;;;;;11.10;3.97;;;;;;;16.48;43.97;101166.74;5061816;56;1138680;-78
2023/04/30 16:41:35;;;;;;;16.77;6.97;;;;;;;16.40;43.64;101176.77;5032336;57;1140782;-78
2023/04/30 16:46:41;;;;;;;9.63;4.00;;;;;;;16.35;45.11;101168.82;4973872;57;1140920;-79
2023/04/30 16:51:48;;;;;;;14.90;4.87;;;;;;;16.29;44.26;101172.07;4902950;56;1139155;-79
2023/04/30 16:56:53;;;;;;;6.83;3.25;;;;;;;16.12;44.48;101174.45;4991955;55;1140865;-80
2023/04/30 17:02:00;;;;;;;10.90;5.33;;;;;;;16.02;45.19;101178.94;5039622;57;1138640;-80
2023/04/30 17:07:06;;;;;;;10.43;5.20;;;;;;;15.99;45.20;101183.20;5032255;56;1140936;-80
2023/04/30 17:12:12;;;;;;;12.53;7.40;;;;;;;15.96;45.56;101179.47;5116863;56;1140791;-80
2023/04/30 17:17:18;;;;;;;8.80;4.00;;;;;;;15.91;45.70;101187.52;5133890;56;1140969;-80
2023/04/30 17:22:24;;;;;;;34.77;22.03;;;;;;;15.86;45.56;101187.95;5023190;56;1138814;-80
2023/04/30 17:27:29;;;;;;;5.47;3.73;;;;;;;15.72;45.89;101189.19;5098513;56;1142858;-80
2023/04/30 17:32:35;;;;;;;197.57;143.13;;;;;;;15.38;44.12;101185.93;5137020;56;1138936;-80
2023/04/30 17:37:41;;;;;;;34.83;23.07;;;;;;;15.11;45.04;101187.84;5027013;57;1147076;-80
2023/04/30 17:42:50;;;;;;;169.93;127.32;;;;;;;14.97;46.07;101196.66;5107040;56;1142896;-80
2023/04/30 17:47:55;;;;;;;22.45;13.18;;;;;;;14.90;46.17;101205.64;5002673;57;1147141;-80
2023/04/30 17:53:01;;;;;;;12.95;7.40;;;;;;;14.76;46.58;101213.47;5065660;56;1143113;-80
2023/04/30 17:58:09;;;;;;;12.13;5.92;;;;;;;14.72;47.87;101216.51;5079962;56;1140933;-80
2023/04/30 18:03:14;;;;;;;11.97;4.47;;;;;;;14.73;47.83;101220.86;5006425;57;1141335;-81
2023/04/30 18:08:21;;;;;;;10.87;5.43;;;;;;;14.62;48.49;101229.76;5058047;56;1140763;-81
2023/04/30 18:13:27;;;;;;;12.50;8.77;;;;;;;14.51;48.67;101220.98;5082708;56;1140863;-81
2023/04/30 18:18:32;;;;;;;20.00;11.60;;;;;;;14.43;49.36;101219.78;5113233;55;1140866;-80
2023/04/30 18:23:38;;;;;;;16.87;10.10;;;;;;;14.50;50.35;101227.27;5203677;55;1143009;-80
2023/04/30 18:28:44;;;;;;;24.20;12.40;;;;;;;14.47;50.60;101236.84;5142936;55;1143009;-81
2023/04/30 18:33:50;;;;;;;20.00;13.40;;;;;;;14.43;51.38;101237.08;4980329;57;1142933;-81
2023/04/30 18:38:55;;;;;;;69.72;30.27;;;;;;;14.45;51.87;101238.77;5025446;57;1142798;-80
2023/04/30 18:44:01;;;;;;;73.92;34.73;;;;;;;14.42;52.30;101242.53;5082043;56;1142847;-80
2023/04/30 18:49:06;;;;;;;42.62;22.32;;;;;;;14.38;52.27;101248.55;5067003;56;1142930;-80
2023/04/30 18:54:12;;;;;;;36.58;20.20;;;;;;;14.34;52.71;101247.62;5012705;57;1142871;-80
2023/04/30 18:59:20;;;;;;;31.87;18.97;;;;;;;14.24;53.35;101255.48;5033045;57;1143045;-80
2023/04/30 19:04:26;;;;;;;37.57;20.57;;;;;;;14.10;53.67;101255.76;5010292;57;1143194;-80
2023/04/30 19:09:40;;;;;;;34.63;18.43;;;;;;;13.98;54.52;101256.75;5085258;55;1142879;-80
2023/04/30 19:14:45;;;;;;;43.57;23.67;;;;;;;13.87;55.08;101258.94;5115909;56;1142776;-79
2023/04/30 19:19:51;;;;;;;61.40;30.10;;;;;;;13.71;55.30;101263.30;5087122;55;1143018;-81
2023/04/30 19:24:57;;;;;;;24.27;13.70;;;;;;;13.33;55.08;101268.94;5183445;55;1142866;-81
2023/04/30 19:30:03;;;;;;;34.87;18.13;;;;;;;12.83;55.09;101267.43;5170320;55;1142992;-81
2023/04/30 19:35:09;;;;;;;49.47;28.87;;;;;;;12.77;57.18;101276.35;5108395;56;1142842;-81
2023/04/30 19:40:17;;;;;;;54.70;30.73;;;;;;;12.80;57.49;101280.11;5110328;56;1142869;-80
2023/04/30 19:45:22;;;;;;;31.30;16.17;;;;;;;12.71;57.40;101282.95;5127264;56;1142992;-82
2023/04/30 19:50:28;;;;;;;27.23;14.40;;;;;;;12.68;57.98;101289.81;5108503;56;1142857;-81
2023/04/30 19:55:34;;;;;;;42.53;21.33;;;;;;;12.66;57.79;101287.78;5116734;56;1142973;-81
2023/04/30 20:00:43;;;;;;;45.20;25.73;;;;;;;12.61;58.21;101288.59;5130564;55;1143021;-81
2023/04/30 20:05:49;;;;;;;51.63;28.10;;;;;;;12.47;59.34;101295.39;5048483;57;1143035;-81
2023/04/30 20:10:56;;;;;;;56.33;32.15;;;;;;;12.21;59.76;101299.94;5002698;56;1269925;-81
2023/04/30 20:16:03;;;;;;;86.22;45.83;;;;;;;12.03;60.52;101303.42;5003485;57;1143233;-81
2023/04/30 20:21:09;;;;;;;57.27;30.20;;;;;;;12.01;61.45;101310.63;5095916;56;1143038;-80
2023/04/30 20:26:15;;;;;;;39.67;19.40;;;;;;;11.94;62.08;101306.70;5143060;55;1143177;-81
2023/04/30 20:31:21;;;;;;;37.60;19.73;;;;;;;11.86;62.26;101314.37;5158786;55;1143054;-80
2023/04/30 20:36:32;;;;;;;60.47;32.50;;;;;;;11.77;62.18;101312.34;5027990;57;1142763;-80
2023/04/30 20:41:34;;;;;;;91.83;48.23;;;;;;;11.66;61.92;101330.77;5095989;56;1143013;-80
2023/04/30 20:46:41;;;;;;;84.40;45.47;;;;;;;11.48;62.16;101328.42;5181177;55;1142959;-80
2023/04/30 20:51:47;;;;;;;86.83;42.80;;;;;;;11.42;62.95;101332.84;5174774;55;1143012;-80
2023/04/30 20:56:53;;;;;;;102.00;47.03;;;;;;;11.43;63.44;101337.19;5100193;56;1143018;-81
2023/04/30 21:01:59;;;;;;;89.52;42.83;;;;;;;11.32;63.17;101337.52;5121735;56;1145070;-79
2023/04/30 21:07:05;;;;;;;81.20;37.10;;;;;;;11.08;63.02;101346.64;5147862;55;1143185;-80
2023/04/30 21:12:11;;;;;;;44.87;22.10;;;;;;;10.92;62.81;101343.69;5162206;55;1143035;-80
2023/04/30 21:17:17;;;;;;;29.97;14.47;;;;;;;10.81;62.38;101347.99;5161720;55;1143000;-80
2023/04/30 21:22:23;;;;;;;33.27;13.53;;;;;;;10.70;62.36;101350.47;5170368;55;1142860;-79
2023/04/30 21:27:28;;;;;;;30.77;11.60;;;;;;;10.73;62.18;101356.89;5149475;55;1143001;-80
2023/04/30 21:32:34;;;;;;;32.83;12.90;;;;;;;10.63;61.54;101361.09;5150323;55;1142997;-80
2023/04/30 21:37:40;;;;;;;24.10;10.77;;;;;;;10.63;61.86;101363.73;5172995;55;1142883;-79
2023/04/30 21:42:46;;;;;;;31.50;11.87;;;;;;;10.57;61.60;101367.14;5147043;55;1143088;-80
2023/04/30 21:47:52;;;;;;;36.73;12.93;;;;;;;10.47;61.40;101367.36;5144774;55;1142970;-80
2023/04/30 21:52:58;;;;;;;23.40;11.95;;;;;;;10.38;61.93;101370.59;5156930;55;1142817;-79
2023/04/30 21:58:03;;;;;;;42.75;19.07;;;;;;;10.41;62.16;101369.05;5151731;55;1142929;-80
2023/04/30 22:03:09;;;;;;;50.90;22.30;;;;;;;10.39;62.11;101373.59;5155764;55;1142937;-79
2023/04/30 22:08:15;;;;;;;53.30;24.93;;;;;;;10.20;61.76;101373.07;5159648;55;1143071;-80
2023/04/30 22:13:20;;;;;;;37.50;15.97;;;;;;;10.00;62.30;101374.26;5165294;55;1143103;-80
2023/04/30 22:18:26;;;;;;;38.17;17.17;;;;;;;9.83;63.00;101374.44;5149201;55;1141074;-80
2023/04/30 22:23:31;;;;;;;33.17;14.37;;;;;;;9.66;64.04;101371.96;5142841;55;1139082;-79
2023/04/30 22:28:37;;;;;;;37.63;13.97;;;;;;;9.56;64.56;101376.95;5170624;55;1138918;-80
2023/04/30 22:33:43;;;;;;;44.77;19.83;;;;;;;9.55;65.21;101374.41;5148516;55;1138780;-80
2023/04/30 22:38:49;;;;;;;39.67;18.70;;;;;;;9.44;65.25;101380.34;5148448;55;1138753;-80
2023/04/30 22:43:54;;;;;;;29.00;12.00;;;;;;;9.29;65.63;101368.89;5170460;55;1138815;-80
2023/04/30 22:49:02;;;;;;;29.83;12.93;;;;;;;9.12;65.57;101371.19;5183104;55;1138911;-79
2023/04/30 22:54:09;;;;;;;24.47;10.17;;;;;;;9.00;66.75;101377.64;5182654;55;1138889;-80
2023/04/30 22:59:15;;;;;;;27.80;12.28;;;;;;;8.91;67.21;101384.28;5131083;55;1138895;-80